sensor_id;sensor_type;location;lat;lon;timestamp;pressure;altitude;pressure_sealevel;temperature;humidity
62150;BME280;48134;53.586;10.610;2024-03-23T00:53:20;100148.31;;;5.10;100.00
62150;BME280;48134;53.586;10.610;2024-03-23T00:55:47;100156.16;;;5.11;100.00
62150;BME280;48134;53.586;10.610;2024-03-23T00:58:14;100150.97;;;5.05;100.00
62150;BME280;48134;53.586;10.610;2024-03-23T01:00:41;100135.81;;;4.99;100.00
62150;BME280;48134;53.586;10.610;2024-03-23T01:03:09;100145.88;;;5.08;100.00
62150;BME280;48134;53.586;10.610;2024-03-23T01:05:35;100142.88;;;5.05;100.00
62150;BME280;48134;53.586;10.610;2024-03-23T01:08:04;100147.66;;;4.98;100.00
62150;BME280;48134;53.586;10.610;2024-03-23T01:10:32;100131.69;;;4.91;100.00
62150;BME280;48134;53.586;10.610;2024-03-23T01:12:59;100127.94;;;4.92;100.00
62150;BME280;48134;53.586;10.610;2024-03-23T01:15:26;100118.72;;;4.88;100.00
62150;BME280;48134;53.586;10.610;2024-03-23T01:17:54;100119.84;;;4.92;100.00
62150;BME280;48134;53.586;10.610;2024-03-23T01:20:21;100121.97;;;4.90;100.00
62150;BME280;48134;53.586;10.610;2024-03-23T01:22:48;100116.81;;;4.88;100.00
62150;BME280;48134;53.586;10.610;2024-03-23T01:25:16;100103.72;;;4.70;100.00
62150;BME280;48134;53.586;10.610;2024-03-23T01:27:44;100101.94;;;4.81;100.00
62150;BME280;48134;53.586;10.610;2024-03-23T01:30:12;100118.16;;;4.86;100.00
62150;BME280;48134;53.586;10.610;2024-03-23T01:32:40;100108.41;;;4.80;100.00
62150;BME280;48134;53.586;10.610;2024-03-23T01:35:08;100093.94;;;4.64;100.00
62150;BME280;48134;53.586;10.610;2024-03-23T01:37:35;100100.41;;;4.63;100.00
62150;BME280;48134;53.586;10.610;2024-03-23T01:40:04;100101.50;;;4.62;100.00
62150;BME280;48134;53.586;10.610;2024-03-23T01:42:30;100092.03;;;4.59;100.00
62150;BME280;48134;53.586;10.610;2024-03-23T01:45:00;100077.97;;;4.57;100.00
62150;BME280;48134;53.586;10.610;2024-03-23T01:47:26;100079.28;;;4.49;100.00
62150;BME280;48134;53.586;10.610;2024-03-23T01:49:54;100077.63;;;4.48;100.00
62150;BME280;48134;53.586;10.610;2024-03-23T01:52:21;100070.34;;;4.49;100.00
62150;BME280;48134;53.586;10.610;2024-03-23T01:54:49;100063.44;;;4.58;100.00
62150;BME280;48134;53.586;10.610;2024-03-23T01:57:17;100065.84;;;4.54;100.00
62150;BME280;48134;53.586;10.610;2024-03-23T01:59:45;100050.94;;;4.47;100.00
62150;BME280;48134;53.586;10.610;2024-03-23T02:02:13;100047.22;;;4.53;100.00
62150;BME280;48134;53.586;10.610;2024-03-23T02:04:44;100051.28;;;4.55;100.00
62150;BME280;48134;53.586;10.610;2024-03-23T02:07:10;100055.31;;;4.53;100.00
62150;BME280;48134;53.586;10.610;2024-03-23T02:09:38;100042.81;;;4.41;100.00
62150;BME280;48134;53.586;10.610;2024-03-23T02:12:05;100041.44;;;4.39;100.00
62150;BME280;48134;53.586;10.610;2024-03-23T02:14:34;100028.16;;;4.32;100.00
62150;BME280;48134;53.586;10.610;2024-03-23T02:17:01;100039.50;;;4.34;100.00
62150;BME280;48134;53.586;10.610;2024-03-23T02:19:31;100034.63;;;4.31;100.00
62150;BME280;48134;53.586;10.610;2024-03-23T02:21:58;100030.09;;;4.37;100.00
62150;BME280;48134;53.586;10.610;2024-03-23T02:24:29;100032.22;;;4.35;100.00
62150;BME280;48134;53.586;10.610;2024-03-23T02:26:56;100019.22;;;4.26;100.00
62150;BME280;48134;53.586;10.610;2024-03-23T02:29:24;100020.97;;;4.38;100.00
62150;BME280;48134;53.586;10.610;2024-03-23T02:31:51;100031.97;;;4.36;100.00
62150;BME280;48134;53.586;10.610;2024-03-23T02:34:19;100026.34;;;4.38;100.00
62150;BME280;48134;53.586;10.610;2024-03-23T02:36:46;100016.59;;;4.32;100.00
62150;BME280;48134;53.586;10.610;2024-03-23T02:39:14;100016.53;;;4.26;100.00
62150;BME280;48134;53.586;10.610;2024-03-23T02:41:43;100014.09;;;4.25;100.00
62150;BME280;48134;53.586;10.610;2024-03-23T02:44:11;100011.84;;;4.17;100.00
62150;BME280;48134;53.586;10.610;2024-03-23T02:46:38;100006.97;;;4.14;100.00
62150;BME280;48134;53.586;10.610;2024-03-23T02:49:07;100007.84;;;4.19;100.00
62150;BME280;48134;53.586;10.610;2024-03-23T02:51:35;100003.97;;;4.10;100.00
62150;BME280;48134;53.586;10.610;2024-03-23T02:54:02;100007.75;;;4.09;100.00
62150;BME280;48134;53.586;10.610;2024-03-23T02:56:32;100005.72;;;4.21;100.00
62150;BME280;48134;53.586;10.610;2024-03-23T02:59:01;100005.91;;;4.15;100.00
62150;BME280;48134;53.586;10.610;2024-03-23T03:01:29;99999.94;;;4.07;100.00
62150;BME280;48134;53.586;10.610;2024-03-23T03:03:56;99993.41;;;4.03;100.00
62150;BME280;48134;53.586;10.610;2024-03-23T03:06:24;99998.28;;;4.06;100.00
62150;BME280;48134;53.586;10.610;2024-03-23T03:08:52;99990.09;;;3.96;100.00
62150;BME280;48134;53.586;10.610;2024-03-23T03:11:20;99999.88;;;4.02;100.00
62150;BME280;48134;53.586;10.610;2024-03-23T03:13:47;99998.03;;;4.08;100.00
62150;BME280;48134;53.586;10.610;2024-03-23T03:16:19;99986.91;;;3.99;100.00
62150;BME280;48134;53.586;10.610;2024-03-23T03:18:47;99995.00;;;3.99;100.00
62150;BME280;48134;53.586;10.610;2024-03-23T03:21:15;99996.31;;;3.97;100.00
62150;BME280;48134;53.586;10.610;2024-03-23T03:23:43;99985.53;;;3.97;100.00
62150;BME280;48134;53.586;10.610;2024-03-23T03:26:13;99982.78;;;3.91;100.00
62150;BME280;48134;53.586;10.610;2024-03-23T03:28:40;99976.97;;;3.78;100.00
62150;BME280;48134;53.586;10.610;2024-03-23T03:31:08;99979.28;;;3.91;100.00
62150;BME280;48134;53.586;10.610;2024-03-23T03:33:36;99974.09;;;3.84;100.00
62150;BME280;48134;53.586;10.610;2024-03-23T03:36:04;99960.31;;;3.81;100.00
62150;BME280;48134;53.586;10.610;2024-03-23T03:38:32;99968.13;;;3.82;100.00
62150;BME280;48134;53.586;10.610;2024-03-23T03:41:01;99964.91;;;3.80;100.00
62150;BME280;48134;53.586;10.610;2024-03-23T03:43:29;99963.59;;;3.83;100.00
62150;BME280;48134;53.586;10.610;2024-03-23T03:45:58;99962.75;;;3.82;100.00
62150;BME280;48134;53.586;10.610;2024-03-23T03:48:26;99958.66;;;3.74;100.00
62150;BME280;48134;53.586;10.610;2024-03-23T03:50:55;99952.25;;;3.81;100.00
62150;BME280;48134;53.586;10.610;2024-03-23T03:53:22;99944.06;;;3.70;100.00
62150;BME280;48134;53.586;10.610;2024-03-23T03:55:50;99948.38;;;3.71;100.00
62150;BME280;48134;53.586;10.610;2024-03-23T03:58:17;99946.78;;;3.75;100.00
62150;BME280;48134;53.586;10.610;2024-03-23T04:00:45;99938.44;;;3.72;100.00
62150;BME280;48134;53.586;10.610;2024-03-23T04:03:12;99930.81;;;3.64;100.00
62150;BME280;48134;53.586;10.610;2024-03-23T04:05:40;99924.72;;;3.73;100.00
62150;BME280;48134;53.586;10.610;2024-03-23T04:08:08;99934.63;;;3.68;100.00
62150;BME280;48134;53.586;10.610;2024-03-23T04:10:36;99938.38;;;3.67;100.00
62150;BME280;48134;53.586;10.610;2024-03-23T04:13:04;99928.38;;;3.62;100.00
62150;BME280;48134;53.586;10.610;2024-03-23T04:15:32;99929.97;;;3.63;100.00
62150;BME280;48134;53.586;10.610;2024-03-23T04:18:01;99927.78;;;3.60;100.00
62150;BME280;48134;53.586;10.610;2024-03-23T04:20:29;99915.63;;;3.52;100.00
62150;BME280;48134;53.586;10.610;2024-03-23T04:22:59;99917.81;;;3.55;100.00
62150;BME280;48134;53.586;10.610;2024-03-23T04:25:29;99912.59;;;3.49;100.00
62150;BME280;48134;53.586;10.610;2024-03-23T04:27:55;99918.13;;;3.59;100.00
62150;BME280;48134;53.586;10.610;2024-03-23T04:30:23;99910.72;;;3.49;100.00
62150;BME280;48134;53.586;10.610;2024-03-23T04:32:51;99920.50;;;3.55;100.00
62150;BME280;48134;53.586;10.610;2024-03-23T04:35:19;99919.38;;;3.51;100.00
62150;BME280;48134;53.586;10.610;2024-03-23T04:37:48;99905.41;;;3.54;100.00
62150;BME280;48134;53.586;10.610;2024-03-23T04:40:17;99897.34;;;3.54;100.00
62150;BME280;48134;53.586;10.610;2024-03-23T04:42:47;99901.91;;;3.54;100.00
62150;BME280;48134;53.586;10.610;2024-03-23T04:45:15;99902.78;;;3.60;100.00
62150;BME280;48134;53.586;10.610;2024-03-23T04:47:43;99892.16;;;3.75;100.00
62150;BME280;48134;53.586;10.610;2024-03-23T04:50:13;99896.88;;;3.63;100.00
62150;BME280;48134;53.586;10.610;2024-03-23T04:52:42;99892.28;;;3.58;100.00
62150;BME280;48134;53.586;10.610;2024-03-23T04:55:09;99899.50;;;3.57;100.00
62150;BME280;48134;53.586;10.610;2024-03-23T04:57:38;99907.19;;;3.71;100.00
62150;BME280;48134;53.586;10.610;2024-03-23T05:00:11;99900.53;;;3.51;100.00
62150;BME280;48134;53.586;10.610;2024-03-23T05:02:44;99899.47;;;3.52;100.00
62150;BME280;48134;53.586;10.610;2024-03-23T05:05:12;99892.72;;;3.50;100.00
62150;BME280;48134;53.586;10.610;2024-03-23T05:07:39;99913.72;;;3.53;100.00
62150;BME280;48134;53.586;10.610;2024-03-23T05:10:09;99914.72;;;3.69;100.00
62150;BME280;48134;53.586;10.610;2024-03-23T05:12:37;99910.34;;;3.63;100.00
62150;BME280;48134;53.586;10.610;2024-03-23T05:15:05;99903.06;;;3.63;100.00
62150;BME280;48134;53.586;10.610;2024-03-23T05:17:33;99887.41;;;3.55;100.00
62150;BME280;48134;53.586;10.610;2024-03-23T05:20:02;99898.81;;;3.67;100.00
62150;BME280;48134;53.586;10.610;2024-03-23T05:22:29;99906.94;;;3.72;100.00
62150;BME280;48134;53.586;10.610;2024-03-23T05:24:58;99875.88;;;3.60;100.00
62150;BME280;48134;53.586;10.610;2024-03-23T05:27:24;99898.66;;;3.79;100.00
62150;BME280;48134;53.586;10.610;2024-03-23T05:29:52;99899.44;;;3.74;100.00
62150;BME280;48134;53.586;10.610;2024-03-23T05:32:18;99885.56;;;3.61;100.00
62150;BME280;48134;53.586;10.610;2024-03-23T05:34:48;99881.34;;;3.70;100.00
62150;BME280;48134;53.586;10.610;2024-03-23T05:37:16;99899.00;;;3.88;100.00
62150;BME280;48134;53.586;10.610;2024-03-23T05:39:44;99896.09;;;3.89;100.00
62150;BME280;48134;53.586;10.610;2024-03-23T05:42:10;99867.91;;;3.70;100.00
62150;BME280;48134;53.586;10.610;2024-03-23T05:44:38;99896.03;;;3.84;100.00
62150;BME280;48134;53.586;10.610;2024-03-23T05:47:05;99895.22;;;3.84;100.00
62150;BME280;48134;53.586;10.610;2024-03-23T05:49:33;99877.91;;;3.74;100.00
62150;BME280;48134;53.586;10.610;2024-03-23T05:52:01;99871.66;;;3.69;100.00
62150;BME280;48134;53.586;10.610;2024-03-23T05:54:29;99896.19;;;4.00;100.00
62150;BME280;48134;53.586;10.610;2024-03-23T05:56:56;99872.88;;;3.83;100.00
62150;BME280;48134;53.586;10.610;2024-03-23T05:59:24;99888.09;;;4.00;100.00
62150;BME280;48134;53.586;10.610;2024-03-23T06:01:50;99867.28;;;3.90;100.00
62150;BME280;48134;53.586;10.610;2024-03-23T06:04:18;99869.50;;;3.98;100.00
62150;BME280;48134;53.586;10.610;2024-03-23T06:06:45;99867.97;;;4.07;100.00
62150;BME280;48134;53.586;10.610;2024-03-23T06:09:14;99842.88;;;4.02;100.00
62150;BME280;48134;53.586;10.610;2024-03-23T06:11:41;99845.81;;;4.00;100.00
62150;BME280;48134;53.586;10.610;2024-03-23T06:14:08;99836.94;;;4.00;100.00
62150;BME280;48134;53.586;10.610;2024-03-23T06:16:35;99866.94;;;4.14;100.00
62150;BME280;48134;53.586;10.610;2024-03-23T06:19:03;99849.78;;;4.20;100.00
62150;BME280;48134;53.586;10.610;2024-03-23T06:21:32;99866.94;;;4.14;100.00
62150;BME280;48134;53.586;10.610;2024-03-23T06:24:00;99863.25;;;4.25;100.00
62150;BME280;48134;53.586;10.610;2024-03-23T06:26:28;99856.22;;;4.19;100.00
62150;BME280;48134;53.586;10.610;2024-03-23T06:28:57;99830.53;;;4.06;100.00
62150;BME280;48134;53.586;10.610;2024-03-23T06:31:23;99854.38;;;4.24;100.00
62150;BME280;48134;53.586;10.610;2024-03-23T06:33:51;99835.69;;;4.13;100.00
62150;BME280;48134;53.586;10.610;2024-03-23T06:36:18;99857.06;;;4.24;100.00
62150;BME280;48134;53.586;10.610;2024-03-23T06:38:46;99855.53;;;4.34;100.00
62150;BME280;48134;53.586;10.610;2024-03-23T06:41:13;99862.31;;;4.41;100.00
62150;BME280;48134;53.586;10.610;2024-03-23T06:43:45;99857.13;;;4.35;100.00
62150;BME280;48134;53.586;10.610;2024-03-23T06:46:11;99859.88;;;4.40;100.00
62150;BME280;48134;53.586;10.610;2024-03-23T06:48:39;99849.94;;;4.46;100.00
62150;BME280;48134;53.586;10.610;2024-03-23T06:51:06;99838.06;;;4.41;100.00
62150;BME280;48134;53.586;10.610;2024-03-23T06:53:35;99852.97;;;4.54;100.00
62150;BME280;48134;53.586;10.610;2024-03-23T06:56:02;99853.81;;;4.65;100.00
62150;BME280;48134;53.586;10.610;2024-03-23T06:58:34;99854.69;;;4.76;100.00
62150;BME280;48134;53.586;10.610;2024-03-23T07:01:04;99829.88;;;4.69;100.00
62150;BME280;48134;53.586;10.610;2024-03-23T07:03:31;99834.75;;;4.77;100.00
62150;BME280;48134;53.586;10.610;2024-03-23T07:05:58;99830.25;;;4.88;100.00
62150;BME280;48134;53.586;10.610;2024-03-23T07:08:29;99845.59;;;4.87;100.00
62150;BME280;48134;53.586;10.610;2024-03-23T07:10:58;99839.69;;;4.96;100.00
62150;BME280;48134;53.586;10.610;2024-03-23T07:13:26;99838.97;;;5.16;100.00
62150;BME280;48134;53.586;10.610;2024-03-23T07:15:53;99847.59;;;5.18;100.00
62150;BME280;48134;53.586;10.610;2024-03-23T07:18:23;99838.19;;;5.25;100.00
62150;BME280;48134;53.586;10.610;2024-03-23T07:20:53;99825.81;;;5.40;100.00
62150;BME280;48134;53.586;10.610;2024-03-23T07:23:23;99827.69;;;5.29;100.00
62150;BME280;48134;53.586;10.610;2024-03-23T07:25:56;99849.28;;;5.39;100.00
62150;BME280;48134;53.586;10.610;2024-03-23T07:28:24;99843.63;;;5.41;100.00
62150;BME280;48134;53.586;10.610;2024-03-23T07:31:06;99839.59;;;5.43;100.00
62150;BME280;48134;53.586;10.610;2024-03-23T07:33:37;99839.59;;;5.43;100.00
62150;BME280;48134;53.586;10.610;2024-03-23T07:36:07;99837.72;;;5.49;100.00
62150;BME280;48134;53.586;10.610;2024-03-23T07:38:36;99839.06;;;5.41;100.00
62150;BME280;48134;53.586;10.610;2024-03-23T07:41:07;99836.06;;;5.38;100.00
62150;BME280;48134;53.586;10.610;2024-03-23T07:43:35;99825.03;;;5.44;100.00
62150;BME280;48134;53.586;10.610;2024-03-23T07:46:03;99829.09;;;5.57;100.00
62150;BME280;48134;53.586;10.610;2024-03-23T07:48:31;99831.81;;;5.62;100.00
62150;BME280;48134;53.586;10.610;2024-03-23T07:51:19;99799.16;;;5.64;100.00
62150;BME280;48134;53.586;10.610;2024-03-23T07:53:57;99823.47;;;5.85;100.00
62150;BME280;48134;53.586;10.610;2024-03-23T07:56:25;99819.44;;;5.92;100.00
62150;BME280;48134;53.586;10.610;2024-03-23T07:59:10;99811.59;;;5.81;100.00
62150;BME280;48134;53.586;10.610;2024-03-23T08:01:38;99821.84;;;5.89;100.00
62150;BME280;48134;53.586;10.610;2024-03-23T08:04:05;99803.72;;;5.69;100.00
62150;BME280;48134;53.586;10.610;2024-03-23T08:06:38;99818.88;;;5.90;100.00
62150;BME280;48134;53.586;10.610;2024-03-23T08:09:05;99795.91;;;5.83;100.00
62150;BME280;48134;53.586;10.610;2024-03-23T08:11:33;99813.19;;;5.87;100.00
62150;BME280;48134;53.586;10.610;2024-03-23T08:14:00;99816.16;;;5.90;100.00
62150;BME280;48134;53.586;10.610;2024-03-23T08:16:28;99820.78;;;6.00;100.00
62150;BME280;48134;53.586;10.610;2024-03-23T08:20:12;99800.50;;;5.82;100.00
62150;BME280;48134;53.586;10.610;2024-03-23T08:22:39;99792.13;;;5.89;100.00
62150;BME280;48134;53.586;10.610;2024-03-23T08:25:37;99830.22;;;6.13;100.00
62150;BME280;48134;53.586;10.610;2024-03-23T08:28:21;99789.72;;;5.82;100.00
62150;BME280;48134;53.586;10.610;2024-03-23T08:30:49;99805.38;;;6.01;100.00
62150;BME280;48134;53.586;10.610;2024-03-23T08:33:19;99778.63;;;5.89;100.00
62150;BME280;48134;53.586;10.610;2024-03-23T08:35:55;99793.78;;;6.00;100.00
62150;BME280;48134;53.586;10.610;2024-03-23T08:38:24;99809.44;;;6.19;100.00
62150;BME280;48134;53.586;10.610;2024-03-23T08:40:56;99815.06;;;6.48;100.00
62150;BME280;48134;53.586;10.610;2024-03-23T08:43:23;99805.88;;;6.44;100.00
62150;BME280;48134;53.586;10.610;2024-03-23T08:45:54;99794.53;;;6.42;100.00
62150;BME280;48134;53.586;10.610;2024-03-23T08:48:21;99805.00;;;6.74;100.00
62150;BME280;48134;53.586;10.610;2024-03-23T08:50:59;99816.81;;;6.99;100.00
62150;BME280;48134;53.586;10.610;2024-03-23T08:53:28;99799.00;;;6.88;100.00
62150;BME280;48134;53.586;10.610;2024-03-23T08:55:57;99794.41;;;7.38;100.00
62150;BME280;48134;53.586;10.610;2024-03-23T08:58:25;99791.09;;;7.52;100.00
62150;BME280;48134;53.586;10.610;2024-03-23T09:00:54;99780.09;;;7.32;100.00
62150;BME280;48134;53.586;10.610;2024-03-23T09:03:22;99792.88;;;7.22;100.00
62150;BME280;48134;53.586;10.610;2024-03-23T09:05:51;99796.19;;;7.08;100.00
62150;BME280;48134;53.586;10.610;2024-03-23T09:08:19;99769.19;;;6.98;100.00
62150;BME280;48134;53.586;10.610;2024-03-23T09:10:49;99794.06;;;7.00;100.00
62150;BME280;48134;53.586;10.610;2024-03-23T09:13:15;99770.34;;;6.87;100.00
62150;BME280;48134;53.586;10.610;2024-03-23T09:15:46;99785.16;;;6.94;100.00
62150;BME280;48134;53.586;10.610;2024-03-23T09:18:13;99782.81;;;6.77;100.00
62150;BME280;48134;53.586;10.610;2024-03-23T09:20:41;99791.84;;;7.12;100.00
62150;BME280;48134;53.586;10.610;2024-03-23T09:23:08;99792.13;;;7.11;100.00
62150;BME280;48134;53.586;10.610;2024-03-23T09:25:41;99774.50;;;7.19;100.00
62150;BME280;48134;53.586;10.610;2024-03-23T09:28:15;99785.09;;;7.55;100.00
62150;BME280;48134;53.586;10.610;2024-03-23T09:30:44;99771.06;;;7.47;100.00
62150;BME280;48134;53.586;10.610;2024-03-23T09:33:12;99792.03;;;7.26;100.00
62150;BME280;48134;53.586;10.610;2024-03-23T09:35:41;99784.59;;;7.03;100.00
62150;BME280;48134;53.586;10.610;2024-03-23T09:38:08;99786.91;;;7.25;100.00
62150;BME280;48134;53.586;10.610;2024-03-23T09:40:40;99772.94;;;7.52;100.00
62150;BME280;48134;53.586;10.610;2024-03-23T09:43:07;99766.59;;;7.67;100.00
62150;BME280;48134;53.586;10.610;2024-03-23T09:45:39;99758.66;;;7.76;100.00
62150;BME280;48134;53.586;10.610;2024-03-23T09:48:06;99766.19;;;7.84;100.00
62150;BME280;48134;53.586;10.610;2024-03-23T09:50:36;99769.00;;;7.74;100.00
62150;BME280;48134;53.586;10.610;2024-03-23T09:53:03;99769.13;;;7.53;100.00
62150;BME280;48134;53.586;10.610;2024-03-23T09:55:31;99756.84;;;7.66;100.00
62150;BME280;48134;53.586;10.610;2024-03-23T09:57:59;99766.94;;;7.90;100.00
62150;BME280;48134;53.586;10.610;2024-03-23T10:00:27;99754.84;;;7.82;100.00
62150;BME280;48134;53.586;10.610;2024-03-23T10:02:56;99757.91;;;7.99;100.00
62150;BME280;48134;53.586;10.610;2024-03-23T10:05:28;99739.22;;;7.98;100.00
62150;BME280;48134;53.586;10.610;2024-03-23T10:07:55;99731.31;;;8.07;100.00
62150;BME280;48134;53.586;10.610;2024-03-23T10:10:25;99710.84;;;8.20;100.00
62150;BME280;48134;53.586;10.610;2024-03-23T10:12:52;99715.25;;;8.64;100.00
62150;BME280;48134;53.586;10.610;2024-03-23T10:15:21;99725.88;;;8.79;100.00
62150;BME280;48134;53.586;10.610;2024-03-23T10:17:48;99708.28;;;8.77;100.00
62150;BME280;48134;53.586;10.610;2024-03-23T10:20:20;99725.22;;;8.68;100.00
62150;BME280;48134;53.586;10.610;2024-03-23T10:22:49;99725.66;;;8.57;100.00
62150;BME280;48134;53.586;10.610;2024-03-23T10:25:18;99730.34;;;8.22;100.00
62150;BME280;48134;53.586;10.610;2024-03-23T10:27:58;99731.06;;;8.03;100.00
62150;BME280;48134;53.586;10.610;2024-03-23T10:30:26;99732.69;;;7.75;100.00
62150;BME280;48134;53.586;10.610;2024-03-23T10:33:06;99741.06;;;7.73;100.00
62150;BME280;48134;53.586;10.610;2024-03-23T10:35:36;99721.66;;;7.66;100.00
62150;BME280;48134;53.586;10.610;2024-03-23T10:38:06;99747.28;;;7.79;100.00
62150;BME280;48134;53.586;10.610;2024-03-23T10:40:35;99714.53;;;7.75;100.00
62150;BME280;48134;53.586;10.610;2024-03-23T10:43:03;99718.47;;;7.88;100.00
62150;BME280;48134;53.586;10.610;2024-03-23T10:45:31;99719.50;;;7.92;100.00
62150;BME280;48134;53.586;10.610;2024-03-23T10:47:58;99695.88;;;7.98;100.00
62150;BME280;48134;53.586;10.610;2024-03-23T10:50:27;99704.13;;;8.12;100.00
62150;BME280;48134;53.586;10.610;2024-03-23T10:52:56;99720.81;;;8.54;100.00
62150;BME280;48134;53.586;10.610;2024-03-23T10:55:26;99687.63;;;8.62;100.00
62150;BME280;48134;53.586;10.610;2024-03-23T10:57:54;99720.13;;;9.05;100.00
62150;BME280;48134;53.586;10.610;2024-03-23T11:00:24;99690.03;;;9.40;100.00
62150;BME280;48134;53.586;10.610;2024-03-23T11:02:51;99674.22;;;8.90;100.00
62150;BME280;48134;53.586;10.610;2024-03-23T11:05:28;99721.09;;;9.14;100.00
62150;BME280;48134;53.586;10.610;2024-03-23T11:07:56;99710.84;;;8.44;100.00
62150;BME280;48134;53.586;10.610;2024-03-23T11:10:26;99719.31;;;8.13;100.00
62150;BME280;48134;53.586;10.610;2024-03-23T11:12:53;99709.84;;;8.10;100.00
62150;BME280;48134;53.586;10.610;2024-03-23T11:15:21;99720.66;;;8.15;100.00
62150;BME280;48134;53.586;10.610;2024-03-23T11:18:04;99692.31;;;7.73;100.00
62150;BME280;48134;53.586;10.610;2024-03-23T11:20:32;99708.34;;;7.99;100.00
62150;BME280;48134;53.586;10.610;2024-03-23T11:23:01;99711.97;;;7.89;100.00
62150;BME280;48134;53.586;10.610;2024-03-23T11:25:29;99709.44;;;7.98;100.00
62150;BME280;48134;53.586;10.610;2024-03-23T11:27:56;99704.56;;;7.71;100.00
62150;BME280;48134;53.586;10.610;2024-03-23T11:30:25;99716.06;;;7.12;100.00
62150;BME280;48134;53.586;10.610;2024-03-23T11:32:54;99714.63;;;6.80;100.00
62150;BME280;48134;53.586;10.610;2024-03-23T11:35:26;99707.97;;;6.62;100.00
62150;BME280;48134;53.586;10.610;2024-03-23T11:38:04;99716.81;;;6.78;100.00
62150;BME280;48134;53.586;10.610;2024-03-23T11:40:32;99715.47;;;6.76;100.00
62150;BME280;48134;53.586;10.610;2024-03-23T11:43:01;99716.56;;;6.75;100.00
62150;BME280;48134;53.586;10.610;2024-03-23T11:45:34;99709.78;;;6.77;100.00
62150;BME280;48134;53.586;10.610;2024-03-23T11:48:05;99724.44;;;6.71;100.00
62150;BME280;48134;53.586;10.610;2024-03-23T11:50:34;99715.22;;;6.72;100.00
62150;BME280;48134;53.586;10.610;2024-03-23T11:53:15;99719.91;;;6.46;100.00
62150;BME280;48134;53.586;10.610;2024-03-23T11:55:45;99704.09;;;6.08;100.00
62150;BME280;48134;53.586;10.610;2024-03-23T11:58:12;99698.38;;;6.30;100.00
62150;BME280;48134;53.586;10.610;2024-03-23T12:00:39;99707.63;;;6.79;100.00
62150;BME280;48134;53.586;10.610;2024-03-23T12:03:07;99677.63;;;6.76;100.00
62150;BME280;48134;53.586;10.610;2024-03-23T12:05:34;99700.78;;;6.92;100.00
62150;BME280;48134;53.586;10.610;2024-03-23T12:08:22;99697.19;;;7.07;100.00
62150;BME280;48134;53.586;10.610;2024-03-23T12:10:51;99669.00;;;7.13;100.00
62150;BME280;48134;53.586;10.610;2024-03-23T12:13:19;99690.06;;;7.56;100.00
62150;BME280;48134;53.586;10.610;2024-03-23T12:15:49;99676.25;;;7.87;100.00
62150;BME280;48134;53.586;10.610;2024-03-23T12:18:17;99667.19;;;8.21;100.00
62150;BME280;48134;53.586;10.610;2024-03-23T12:20:44;99674.69;;;8.29;100.00
62150;BME280;48134;53.586;10.610;2024-03-23T12:23:12;99669.50;;;8.33;100.00
62150;BME280;48134;53.586;10.610;2024-03-23T12:25:44;99668.91;;;8.12;100.00
62150;BME280;48134;53.586;10.610;2024-03-23T12:28:11;99683.09;;;8.28;100.00
62150;BME280;48134;53.586;10.610;2024-03-23T12:30:39;99684.38;;;8.36;100.00
62150;BME280;48134;53.586;10.610;2024-03-23T12:33:06;99661.38;;;8.09;100.00
62150;BME280;48134;53.586;10.610;2024-03-23T12:35:36;99656.38;;;7.97;100.00
62150;BME280;48134;53.586;10.610;2024-03-23T12:38:03;99637.31;;;7.78;100.00
62150;BME280;48134;53.586;10.610;2024-03-23T12:40:31;99681.91;;;8.15;100.00
62150;BME280;48134;53.586;10.610;2024-03-23T12:42:59;99683.88;;;8.09;100.00
62150;BME280;48134;53.586;10.610;2024-03-23T12:45:27;99679.53;;;8.08;100.00
62150;BME280;48134;53.586;10.610;2024-03-23T12:47:54;99724.16;;;7.57;100.00
62150;BME280;48134;53.586;10.610;2024-03-23T12:50:21;99748.56;;;6.52;100.00
62150;BME280;48134;53.586;10.610;2024-03-23T12:52:48;99748.66;;;6.06;100.00
62150;BME280;48134;53.586;10.610;2024-03-23T12:55:16;99718.16;;;5.79;100.00
62150;BME280;48134;53.586;10.610;2024-03-23T12:57:43;99762.72;;;5.67;100.00
62150;BME280;48134;53.586;10.610;2024-03-23T13:00:13;99741.06;;;5.15;100.00
62150;BME280;48134;53.586;10.610;2024-03-23T13:02:42;99735.91;;;4.93;100.00
62150;BME280;48134;53.586;10.610;2024-03-23T13:05:10;99730.97;;;4.74;100.00
62150;BME280;48134;53.586;10.610;2024-03-23T13:07:37;99731.13;;;5.41;100.00
62150;BME280;48134;53.586;10.610;2024-03-23T13:10:05;99732.22;;;5.61;100.00
62150;BME280;48134;53.586;10.610;2024-03-23T13:12:32;99726.25;;;5.59;100.00
62150;BME280;48134;53.586;10.610;2024-03-23T13:15:00;99727.06;;;5.75;100.00
62150;BME280;48134;53.586;10.610;2024-03-23T13:17:36;99731.66;;;5.64;100.00
62150;BME280;48134;53.586;10.610;2024-03-23T13:20:07;99728.16;;;5.38;100.00
62150;BME280;48134;53.586;10.610;2024-03-23T13:22:39;99753.28;;;5.69;100.00
62150;BME280;48134;53.586;10.610;2024-03-23T13:25:08;99725.44;;;5.48;100.00
62150;BME280;48134;53.586;10.610;2024-03-23T13:27:35;99750.56;;;5.69;100.00
62150;BME280;48134;53.586;10.610;2024-03-23T13:30:03;99739.22;;;5.67;100.00
62150;BME280;48134;53.586;10.610;2024-03-23T13:32:32;99751.38;;;5.54;100.00
62150;BME280;48134;53.586;10.610;2024-03-23T13:35:00;99755.41;;;5.52;100.00
62150;BME280;48134;53.586;10.610;2024-03-23T13:37:26;99730.31;;;5.31;100.00
62150;BME280;48134;53.586;10.610;2024-03-23T13:39:54;99749.75;;;5.53;100.00
62150;BME280;48134;53.586;10.610;2024-03-23T13:42:21;99752.44;;;5.58;100.00
62150;BME280;48134;53.586;10.610;2024-03-23T13:44:52;99754.34;;;5.58;100.00
62150;BME280;48134;53.586;10.610;2024-03-23T13:47:18;99737.84;;;5.34;100.00
62150;BME280;48134;53.586;10.610;2024-03-23T13:49:47;99767.56;;;5.39;100.00